sensor_id;sensor_type;location;lat;lon;timestamp;P1;durP1;ratioP1;P2;durP2;ratioP2
10096;SDS011;5087;42.662;23.466;2023-04-30T00:00:25;2.07;;;2.07;;
10096;SDS011;5087;42.662;23.466;2023-04-30T00:02:52;1.40;;;1.40;;
10096;SDS011;5087;42.662;23.466;2023-04-30T00:05:19;1.00;;;1.00;;
10096;SDS011;5087;42.662;23.466;2023-04-30T00:07:46;0.70;;;0.70;;
10096;SDS011;5087;42.662;23.466;2023-04-30T00:10:13;0.50;;;0.50;;
10096;SDS011;5087;42.662;23.466;2023-04-30T00:12:41;0.60;;;0.60;;
10096;SDS011;5087;42.662;23.466;2023-04-30T00:15:08;0.60;;;0.60;;
10096;SDS011;5087;42.662;23.466;2023-04-30T00:17:36;0.30;;;0.30;;
10096;SDS011;5087;42.662;23.466;2023-04-30T00:20:03;0.40;;;0.40;;
10096;SDS011;5087;42.662;23.466;2023-04-30T00:22:30;0.60;;;0.60;;
10096;SDS011;5087;42.662;23.466;2023-04-30T00:24:58;0.63;;;0.63;;
10096;SDS011;5087;42.662;23.466;2023-04-30T00:27:24;0.30;;;0.30;;
10096;SDS011;5087;42.662;23.466;2023-04-30T00:29:53;0.23;;;0.23;;
10096;SDS011;5087;42.662;23.466;2023-04-30T00:32:20;0.30;;;0.30;;
10096;SDS011;5087;42.662;23.466;2023-04-30T00:34:47;0.30;;;0.30;;
10096;SDS011;5087;42.662;23.466;2023-04-30T00:37:14;0.30;;;0.30;;
10096;SDS011;5087;42.662;23.466;2023-04-30T00:39:41;0.70;;;0.70;;
10096;SDS011;5087;42.662;23.466;2023-04-30T00:42:07;0.50;;;0.50;;
10096;SDS011;5087;42.662;23.466;2023-04-30T00:44:34;0.60;;;0.60;;
10096;SDS011;5087;42.662;23.466;2023-04-30T00:47:03;0.30;;;0.30;;
10096;SDS011;5087;42.662;23.466;2023-04-30T00:49:30;0.27;;;0.27;;
10096;SDS011;5087;42.662;23.466;2023-04-30T00:51:57;0.20;;;0.20;;
10096;SDS011;5087;42.662;23.466;2023-04-30T00:54:23;0.37;;;0.37;;
10096;SDS011;5087;42.662;23.466;2023-04-30T00:56:51;1.13;;;0.97;;
10096;SDS011;5087;42.662;23.466;2023-04-30T00:59:17;0.10;;;0.10;;
10096;SDS011;5087;42.662;23.466;2023-04-30T01:01:44;0.10;;;0.10;;
10096;SDS011;5087;42.662;23.466;2023-04-30T01:04:13;0.20;;;0.20;;
10096;SDS011;5087;42.662;23.466;2023-04-30T01:06:40;0.10;;;0.10;;
10096;SDS011;5087;42.662;23.466;2023-04-30T01:09:07;0.10;;;0.10;;
10096;SDS011;5087;42.662;23.466;2023-04-30T01:11:37;0.10;;;0.10;;
10096;SDS011;5087;42.662;23.466;2023-04-30T01:14:06;0.17;;;0.17;;
10096;SDS011;5087;42.662;23.466;2023-04-30T01:16:39;0.17;;;0.17;;
10096;SDS011;5087;42.662;23.466;2023-04-30T01:19:08;0.10;;;0.10;;
10096;SDS011;5087;42.662;23.466;2023-04-30T01:21:38;0.10;;;0.10;;
10096;SDS011;5087;42.662;23.466;2023-04-30T01:24:14;0.20;;;0.20;;
10096;SDS011;5087;42.662;23.466;2023-04-30T01:26:50;0.10;;;0.10;;
10096;SDS011;5087;42.662;23.466;2023-04-30T01:29:20;0.20;;;0.20;;
10096;SDS011;5087;42.662;23.466;2023-04-30T01:31:51;0.20;;;0.20;;
10096;SDS011;5087;42.662;23.466;2023-04-30T01:34:17;0.20;;;0.20;;
10096;SDS011;5087;42.662;23.466;2023-04-30T01:36:47;0.40;;;0.40;;
10096;SDS011;5087;42.662;23.466;2023-04-30T01:39:27;0.20;;;0.20;;
10096;SDS011;5087;42.662;23.466;2023-04-30T01:41:59;0.83;;;0.83;;
10096;SDS011;5087;42.662;23.466;2023-04-30T01:44:44;0.20;;;0.20;;
10096;SDS011;5087;42.662;23.466;2023-04-30T01:47:16;0.10;;;0.10;;
10096;SDS011;5087;42.662;23.466;2023-04-30T01:49:49;0.20;;;0.20;;
10096;SDS011;5087;42.662;23.466;2023-04-30T01:52:20;0.10;;;0.10;;
10096;SDS011;5087;42.662;23.466;2023-04-30T01:54:50;0.57;;;0.57;;
10096;SDS011;5087;42.662;23.466;2023-04-30T01:57:20;0.10;;;0.10;;
10096;SDS011;5087;42.662;23.466;2023-04-30T01:59:50;2.77;;;0.30;;
10096;SDS011;5087;42.662;23.466;2023-04-30T02:02:17;0.20;;;0.20;;
10096;SDS011;5087;42.662;23.466;2023-04-30T02:04:45;0.93;;;0.93;;
10096;SDS011;5087;42.662;23.466;2023-04-30T02:07:15;0.00;;;0.00;;
10096;SDS011;5087;42.662;23.466;2023-04-30T02:09:43;0.27;;;0.27;;
10096;SDS011;5087;42.662;23.466;2023-04-30T02:12:10;0.00;;;0.00;;
10096;SDS011;5087;42.662;23.466;2023-04-30T02:14:37;0.00;;;0.00;;
10096;SDS011;5087;42.662;23.466;2023-04-30T02:17:06;0.03;;;0.03;;
10096;SDS011;5087;42.662;23.466;2023-04-30T02:19:33;0.10;;;0.10;;
10096;SDS011;5087;42.662;23.466;2023-04-30T02:22:00;0.00;;;0.00;;
10096;SDS011;5087;42.662;23.466;2023-04-30T02:24:27;0.00;;;0.00;;
10096;SDS011;5087;42.662;23.466;2023-04-30T02:26:53;0.00;;;0.00;;
10096;SDS011;5087;42.662;23.466;2023-04-30T02:29:20;0.00;;;0.00;;
10096;SDS011;5087;42.662;23.466;2023-04-30T02:31:47;0.00;;;0.00;;
10096;SDS011;5087;42.662;23.466;2023-04-30T02:34:15;0.00;;;0.00;;
10096;SDS011;5087;42.662;23.466;2023-04-30T02:36:42;0.00;;;0.00;;
10096;SDS011;5087;42.662;23.466;2023-04-30T02:39:09;0.00;;;0.00;;
10096;SDS011;5087;42.662;23.466;2023-04-30T02:41:36;0.40;;;0.40;;
10096;SDS011;5087;42.662;23.466;2023-04-30T02:44:03;0.00;;;0.00;;
10096;SDS011;5087;42.662;23.466;2023-04-30T02:46:30;0.00;;;0.00;;
10096;SDS011;5087;42.662;23.466;2023-04-30T02:48:57;0.00;;;0.00;;
10096;SDS011;5087;42.662;23.466;2023-04-30T02:51:26;0.20;;;0.20;;
10096;SDS011;5087;42.662;23.466;2023-04-30T02:53:52;0.23;;;0.23;;
10096;SDS011;5087;42.662;23.466;2023-04-30T02:56:19;0.20;;;0.20;;
10096;SDS011;5087;42.662;23.466;2023-04-30T02:58:46;0.20;;;0.20;;
10096;SDS011;5087;42.662;23.466;2023-04-30T03:01:13;0.00;;;0.00;;
10096;SDS011;5087;42.662;23.466;2023-04-30T03:03:40;0.00;;;0.00;;
10096;SDS011;5087;42.662;23.466;2023-04-30T03:06:07;0.00;;;0.00;;
10096;SDS011;5087;42.662;23.466;2023-04-30T03:08:35;0.00;;;0.00;;
10096;SDS011;5087;42.662;23.466;2023-04-30T03:11:02;0.00;;;0.00;;
10096;SDS011;5087;42.662;23.466;2023-04-30T03:13:29;0.00;;;0.00;;
10096;SDS011;5087;42.662;23.466;2023-04-30T03:15:56;0.00;;;0.00;;
10096;SDS011;5087;42.662;23.466;2023-04-30T03:18:24;0.00;;;0.00;;
10096;SDS011;5087;42.662;23.466;2023-04-30T03:20:52;0.10;;;0.10;;
10096;SDS011;5087;42.662;23.466;2023-04-30T03:23:19;0.20;;;0.20;;
10096;SDS011;5087;42.662;23.466;2023-04-30T03:25:47;0.10;;;0.10;;
10096;SDS011;5087;42.662;23.466;2023-04-30T03:28:14;0.10;;;0.10;;
10096;SDS011;5087;42.662;23.466;2023-04-30T03:30:41;0.10;;;0.10;;
10096;SDS011;5087;42.662;23.466;2023-04-30T03:33:08;0.17;;;0.17;;
10096;SDS011;5087;42.662;23.466;2023-04-30T03:35:35;0.10;;;0.10;;
10096;SDS011;5087;42.662;23.466;2023-04-30T03:38:02;0.00;;;0.00;;
10096;SDS011;5087;42.662;23.466;2023-04-30T03:40:30;0.10;;;0.10;;
10096;SDS011;5087;42.662;23.466;2023-04-30T03:42:58;0.30;;;0.30;;
10096;SDS011;5087;42.662;23.466;2023-04-30T03:45:25;0.00;;;0.00;;
10096;SDS011;5087;42.662;23.466;2023-04-30T03:47:52;0.10;;;0.10;;
10096;SDS011;5087;42.662;23.466;2023-04-30T03:50:19;0.00;;;0.00;;
10096;SDS011;5087;42.662;23.466;2023-04-30T03:52:46;0.00;;;0.00;;
10096;SDS011;5087;42.662;23.466;2023-04-30T03:55:14;0.10;;;0.10;;
10096;SDS011;5087;42.662;23.466;2023-04-30T03:57:41;0.10;;;0.10;;
10096;SDS011;5087;42.662;23.466;2023-04-30T04:00:09;1.60;;;0.73;;
10096;SDS011;5087;42.662;23.466;2023-04-30T04:02:44;0.00;;;0.00;;
10096;SDS011;5087;42.662;23.466;2023-04-30T04:05:11;0.00;;;0.00;;
10096;SDS011;5087;42.662;23.466;2023-04-30T04:07:38;0.00;;;0.00;;
10096;SDS011;5087;42.662;23.466;2023-04-30T04:10:06;0.47;;;0.47;;
10096;SDS011;5087;42.662;23.466;2023-04-30T04:12:33;0.10;;;0.10;;
10096;SDS011;5087;42.662;23.466;2023-04-30T04:15:00;0.10;;;0.10;;
10096;SDS011;5087;42.662;23.466;2023-04-30T04:17:29;0.10;;;0.10;;
10096;SDS011;5087;42.662;23.466;2023-04-30T04:19:56;0.10;;;0.10;;
10096;SDS011;5087;42.662;23.466;2023-04-30T04:22:24;0.10;;;0.10;;
10096;SDS011;5087;42.662;23.466;2023-04-30T04:24:51;0.00;;;0.00;;
10096;SDS011;5087;42.662;23.466;2023-04-30T04:27:20;0.00;;;0.00;;
10096;SDS011;5087;42.662;23.466;2023-04-30T04:29:48;0.00;;;0.00;;
10096;SDS011;5087;42.662;23.466;2023-04-30T04:32:15;0.00;;;0.00;;
10096;SDS011;5087;42.662;23.466;2023-04-30T04:34:44;0.37;;;0.37;;
10096;SDS011;5087;42.662;23.466;2023-04-30T04:37:11;0.00;;;0.00;;
10096;SDS011;5087;42.662;23.466;2023-04-30T04:39:38;0.00;;;0.00;;
10096;SDS011;5087;42.662;23.466;2023-04-30T04:42:05;0.00;;;0.00;;
10096;SDS011;5087;42.662;23.466;2023-04-30T04:44:32;0.00;;;0.00;;
10096;SDS011;5087;42.662;23.466;2023-04-30T04:47:00;0.93;;;0.93;;
10096;SDS011;5087;42.662;23.466;2023-04-30T04:49:29;0.10;;;0.10;;
10096;SDS011;5087;42.662;23.466;2023-04-30T04:51:58;0.10;;;0.10;;
10096;SDS011;5087;42.662;23.466;2023-04-30T04:54:26;0.00;;;0.00;;
10096;SDS011;5087;42.662;23.466;2023-04-30T04:56:53;0.00;;;0.00;;
10096;SDS011;5087;42.662;23.466;2023-04-30T04:59:21;0.00;;;0.00;;
10096;SDS011;5087;42.662;23.466;2023-04-30T05:01:48;0.07;;;0.07;;
10096;SDS011;5087;42.662;23.466;2023-04-30T05:04:15;0.00;;;0.00;;
10096;SDS011;5087;42.662;23.466;2023-04-30T05:06:43;0.10;;;0.10;;
10096;SDS011;5087;42.662;23.466;2023-04-30T05:09:12;0.20;;;0.20;;
10096;SDS011;5087;42.662;23.466;2023-04-30T05:11:40;0.30;;;0.30;;
10096;SDS011;5087;42.662;23.466;2023-04-30T05:14:08;0.30;;;0.30;;
10096;SDS011;5087;42.662;23.466;2023-04-30T05:16:35;0.47;;;0.47;;
10096;SDS011;5087;42.662;23.466;2023-04-30T05:19:02;0.70;;;0.70;;
10096;SDS011;5087;42.662;23.466;2023-04-30T05:21:29;0.90;;;0.90;;
10096;SDS011;5087;42.662;23.466;2023-04-30T05:23:56;1.00;;;1.00;;
10096;SDS011;5087;42.662;23.466;2023-04-30T05:26:25;1.07;;;1.07;;
10096;SDS011;5087;42.662;23.466;2023-04-30T05:28:52;1.43;;;1.43;;
10096;SDS011;5087;42.662;23.466;2023-04-30T05:31:19;1.10;;;1.10;;
10096;SDS011;5087;42.662;23.466;2023-04-30T05:33:46;1.53;;;1.53;;
10096;SDS011;5087;42.662;23.466;2023-04-30T05:36:13;1.70;;;1.70;;
10096;SDS011;5087;42.662;23.466;2023-04-30T05:38:40;1.47;;;1.47;;
10096;SDS011;5087;42.662;23.466;2023-04-30T05:41:09;1.60;;;1.60;;
10096;SDS011;5087;42.662;23.466;2023-04-30T05:43:38;1.60;;;1.60;;
10096;SDS011;5087;42.662;23.466;2023-04-30T05:46:05;1.63;;;1.63;;
10096;SDS011;5087;42.662;23.466;2023-04-30T05:48:32;1.10;;;1.10;;
10096;SDS011;5087;42.662;23.466;2023-04-30T05:50:59;0.87;;;0.87;;
10096;SDS011;5087;42.662;23.466;2023-04-30T05:53:26;0.67;;;0.67;;
10096;SDS011;5087;42.662;23.466;2023-04-30T05:55:53;0.73;;;0.73;;
10096;SDS011;5087;42.662;23.466;2023-04-30T05:58:20;0.60;;;0.60;;
10096;SDS011;5087;42.662;23.466;2023-04-30T06:00:49;0.70;;;0.70;;
10096;SDS011;5087;42.662;23.466;2023-04-30T06:03:16;0.70;;;0.70;;
10096;SDS011;5087;42.662;23.466;2023-04-30T06:05:43;0.70;;;0.70;;
10096;SDS011;5087;42.662;23.466;2023-04-30T06:08:10;1.00;;;1.00;;
10096;SDS011;5087;42.662;23.466;2023-04-30T06:10:37;0.90;;;0.90;;
10096;SDS011;5087;42.662;23.466;2023-04-30T06:13:07;2.73;;;1.17;;
10096;SDS011;5087;42.662;23.466;2023-04-30T06:15:34;0.90;;;0.90;;
10096;SDS011;5087;42.662;23.466;2023-04-30T06:18:02;0.70;;;0.70;;
10096;SDS011;5087;42.662;23.466;2023-04-30T06:20:29;0.90;;;0.90;;
10096;SDS011;5087;42.662;23.466;2023-04-30T06:22:56;1.40;;;1.40;;
10096;SDS011;5087;42.662;23.466;2023-04-30T06:25:24;1.50;;;1.50;;
10096;SDS011;5087;42.662;23.466;2023-04-30T06:27:51;1.50;;;1.50;;
10096;SDS011;5087;42.662;23.466;2023-04-30T06:30:19;2.00;;;2.00;;
10096;SDS011;5087;42.662;23.466;2023-04-30T06:32:46;2.30;;;2.30;;
10096;SDS011;5087;42.662;23.466;2023-04-30T06:35:14;2.97;;;2.97;;
10096;SDS011;5087;42.662;23.466;2023-04-30T06:37:41;2.97;;;2.97;;
10096;SDS011;5087;42.662;23.466;2023-04-30T06:40:08;2.80;;;2.80;;
10096;SDS011;5087;42.662;23.466;2023-04-30T06:42:35;3.30;;;3.30;;
10096;SDS011;5087;42.662;23.466;2023-04-30T06:45:03;3.57;;;3.57;;
10096;SDS011;5087;42.662;23.466;2023-04-30T06:47:31;3.90;;;3.87;;
10096;SDS011;5087;42.662;23.466;2023-04-30T06:49:58;4.63;;;4.53;;
10096;SDS011;5087;42.662;23.466;2023-04-30T06:52:27;4.50;;;4.40;;
10096;SDS011;5087;42.662;23.466;2023-04-30T06:54:54;4.67;;;4.57;;
10096;SDS011;5087;42.662;23.466;2023-04-30T06:57:20;4.80;;;4.70;;
10096;SDS011;5087;42.662;23.466;2023-04-30T06:59:47;5.43;;;5.33;;
10096;SDS011;5087;42.662;23.466;2023-04-30T07:02:14;5.00;;;4.90;;
10096;SDS011;5087;42.662;23.466;2023-04-30T07:04:41;5.47;;;5.37;;
10096;SDS011;5087;42.662;23.466;2023-04-30T07:07:08;5.20;;;5.10;;
10096;SDS011;5087;42.662;23.466;2023-04-30T07:09:36;5.10;;;5.00;;
10096;SDS011;5087;42.662;23.466;2023-04-30T07:12:03;4.67;;;4.57;;
10096;SDS011;5087;42.662;23.466;2023-04-30T07:14:30;5.30;;;5.00;;
10096;SDS011;5087;42.662;23.466;2023-04-30T07:16:57;4.70;;;4.60;;
10096;SDS011;5087;42.662;23.466;2023-04-30T07:19:25;5.10;;;4.90;;
10096;SDS011;5087;42.662;23.466;2023-04-30T07:21:52;4.00;;;3.90;;
10096;SDS011;5087;42.662;23.466;2023-04-30T07:24:18;3.80;;;3.80;;
10096;SDS011;5087;42.662;23.466;2023-04-30T07:26:47;4.60;;;4.40;;
10096;SDS011;5087;42.662;23.466;2023-04-30T07:29:14;3.97;;;3.87;;
10096;SDS011;5087;42.662;23.466;2023-04-30T07:31:40;4.17;;;4.07;;
10096;SDS011;5087;42.662;23.466;2023-04-30T07:34:07;4.03;;;3.97;;
10096;SDS011;5087;42.662;23.466;2023-04-30T07:36:34;4.70;;;4.50;;
10096;SDS011;5087;42.662;23.466;2023-04-30T07:39:02;3.80;;;3.80;;
10096;SDS011;5087;42.662;23.466;2023-04-30T07:41:30;4.20;;;4.10;;
10096;SDS011;5087;42.662;23.466;2023-04-30T07:43:58;3.90;;;3.90;;
10096;SDS011;5087;42.662;23.466;2023-04-30T07:46:25;3.80;;;3.80;;
10096;SDS011;5087;42.662;23.466;2023-04-30T07:48:52;3.93;;;3.90;;
10096;SDS011;5087;42.662;23.466;2023-04-30T07:51:19;4.67;;;4.57;;
10096;SDS011;5087;42.662;23.466;2023-04-30T07:53:46;5.00;;;4.80;;
10096;SDS011;5087;42.662;23.466;2023-04-30T07:56:13;5.03;;;4.93;;
10096;SDS011;5087;42.662;23.466;2023-04-30T07:58:40;4.40;;;4.20;;
10096;SDS011;5087;42.662;23.466;2023-04-30T08:01:09;4.53;;;4.43;;
10096;SDS011;5087;42.662;23.466;2023-04-30T08:03:36;3.67;;;3.67;;
10096;SDS011;5087;42.662;23.466;2023-04-30T08:06:04;4.00;;;3.90;;
10096;SDS011;5087;42.662;23.466;2023-04-30T08:08:32;3.90;;;3.80;;
10096;SDS011;5087;42.662;23.466;2023-04-30T08:10:58;4.03;;;3.97;;
10096;SDS011;5087;42.662;23.466;2023-04-30T08:13:26;4.40;;;4.30;;
10096;SDS011;5087;42.662;23.466;2023-04-30T08:15:52;6.40;;;5.77;;
10096;SDS011;5087;42.662;23.466;2023-04-30T08:18:21;4.80;;;4.70;;
10096;SDS011;5087;42.662;23.466;2023-04-30T08:20:47;4.73;;;4.63;;
10096;SDS011;5087;42.662;23.466;2023-04-30T08:23:14;4.10;;;4.00;;
10096;SDS011;5087;42.662;23.466;2023-04-30T08:25:42;3.90;;;3.90;;
10096;SDS011;5087;42.662;23.466;2023-04-30T08:28:09;5.00;;;4.80;;
10096;SDS011;5087;42.662;23.466;2023-04-30T08:30:36;4.10;;;4.00;;
10096;SDS011;5087;42.662;23.466;2023-04-30T08:33:03;5.10;;;4.93;;
10096;SDS011;5087;42.662;23.466;2023-04-30T08:35:31;4.50;;;4.40;;
10096;SDS011;5087;42.662;23.466;2023-04-30T08:38:00;4.93;;;4.83;;
10096;SDS011;5087;42.662;23.466;2023-04-30T08:40:31;4.70;;;4.60;;
10096;SDS011;5087;42.662;23.466;2023-04-30T08:43:03;4.37;;;4.27;;
10096;SDS011;5087;42.662;23.466;2023-04-30T08:45:31;4.53;;;4.43;;
10096;SDS011;5087;42.662;23.466;2023-04-30T08:48:00;4.73;;;4.63;;
10096;SDS011;5087;42.662;23.466;2023-04-30T08:50:27;5.00;;;4.90;;
10096;SDS011;5087;42.662;23.466;2023-04-30T08:52:55;4.53;;;4.43;;
10096;SDS011;5087;42.662;23.466;2023-04-30T08:55:26;5.10;;;4.90;;
10096;SDS011;5087;42.662;23.466;2023-04-30T08:57:53;6.03;;;5.53;;
10096;SDS011;5087;42.662;23.466;2023-04-30T09:00:20;5.33;;;5.23;;
10096;SDS011;5087;42.662;23.466;2023-04-30T09:02:47;4.50;;;4.40;;
10096;SDS011;5087;42.662;23.466;2023-04-30T09:05:14;4.30;;;4.20;;
10096;SDS011;5087;42.662;23.466;2023-04-30T09:07:42;3.90;;;3.90;;
10096;SDS011;5087;42.662;23.466;2023-04-30T09:10:15;3.87;;;3.83;;
10096;SDS011;5087;42.662;23.466;2023-04-30T09:12:42;3.43;;;3.43;;
10096;SDS011;5087;42.662;23.466;2023-04-30T09:15:10;3.83;;;3.73;;
10096;SDS011;5087;42.662;23.466;2023-04-30T09:17:37;3.60;;;3.60;;
10096;SDS011;5087;42.662;23.466;2023-04-30T09:20:05;3.47;;;3.47;;
10096;SDS011;5087;42.662;23.466;2023-04-30T09:22:33;3.73;;;3.63;;
10096;SDS011;5087;42.662;23.466;2023-04-30T09:25:00;3.00;;;3.00;;
10096;SDS011;5087;42.662;23.466;2023-04-30T09:27:28;2.87;;;2.87;;
10096;SDS011;5087;42.662;23.466;2023-04-30T09:29:55;2.63;;;2.63;;
10096;SDS011;5087;42.662;23.466;2023-04-30T09:32:22;2.80;;;2.80;;
10096;SDS011;5087;42.662;23.466;2023-04-30T09:34:50;2.30;;;2.30;;
10096;SDS011;5087;42.662;23.466;2023-04-30T09:37:17;2.03;;;2.03;;
10096;SDS011;5087;42.662;23.466;2023-04-30T09:39:48;1.90;;;1.90;;
10096;SDS011;5087;42.662;23.466;2023-04-30T09:42:15;2.00;;;2.00;;
10096;SDS011;5087;42.662;23.466;2023-04-30T09:44:43;2.20;;;2.20;;
10096;SDS011;5087;42.662;23.466;2023-04-30T09:47:11;2.37;;;2.37;;
10096;SDS011;5087;42.662;23.466;2023-04-30T09:49:40;1.90;;;1.90;;
10096;SDS011;5087;42.662;23.466;2023-04-30T09:52:07;1.93;;;1.93;;
10096;SDS011;5087;42.662;23.466;2023-04-30T09:54:34;2.00;;;2.00;;
10096;SDS011;5087;42.662;23.466;2023-04-30T09:57:01;2.30;;;2.30;;
10096;SDS011;5087;42.662;23.466;2023-04-30T09:59:28;2.80;;;2.80;;
10096;SDS011;5087;42.662;23.466;2023-04-30T10:01:58;2.47;;;2.47;;
10096;SDS011;5087;42.662;23.466;2023-04-30T10:04:26;3.80;;;3.70;;
10096;SDS011;5087;42.662;23.466;2023-04-30T10:06:53;4.20;;;4.07;;
10096;SDS011;5087;42.662;23.466;2023-04-30T10:09:20;3.40;;;3.40;;
10096;SDS011;5087;42.662;23.466;2023-04-30T10:11:48;4.57;;;4.47;;
10096;SDS011;5087;42.662;23.466;2023-04-30T10:14:16;4.80;;;4.70;;
10096;SDS011;5087;42.662;23.466;2023-04-30T10:16:46;4.50;;;4.40;;
10096;SDS011;5087;42.662;23.466;2023-04-30T10:19:17;5.53;;;5.43;;
10096;SDS011;5087;42.662;23.466;2023-04-30T10:21:45;5.20;;;5.10;;
10096;SDS011;5087;42.662;23.466;2023-04-30T10:24:12;5.20;;;5.10;;
10096;SDS011;5087;42.662;23.466;2023-04-30T10:26:40;5.00;;;4.90;;
10096;SDS011;5087;42.662;23.466;2023-04-30T10:29:07;4.83;;;4.73;;
10096;SDS011;5087;42.662;23.466;2023-04-30T10:31:35;4.93;;;4.83;;
10096;SDS011;5087;42.662;23.466;2023-04-30T10:34:04;5.30;;;5.20;;
10096;SDS011;5087;42.662;23.466;2023-04-30T10:36:35;4.90;;;4.80;;
10096;SDS011;5087;42.662;23.466;2023-04-30T10:39:03;4.80;;;4.70;;
10096;SDS011;5087;42.662;23.466;2023-04-30T10:41:30;5.17;;;5.07;;
10096;SDS011;5087;42.662;23.466;2023-04-30T10:43:57;5.20;;;5.10;;
10096;SDS011;5087;42.662;23.466;2023-04-30T10:46:27;5.10;;;5.00;;
10096;SDS011;5087;42.662;23.466;2023-04-30T10:48:54;4.53;;;4.43;;
10096;SDS011;5087;42.662;23.466;2023-04-30T10:51:21;3.90;;;3.90;;
10096;SDS011;5087;42.662;23.466;2023-04-30T10:53:49;5.23;;;5.13;;
10096;SDS011;5087;42.662;23.466;2023-04-30T10:58:59;7.90;;;7.70;;
10096;SDS011;5087;42.662;23.466;2023-04-30T11:01:26;8.00;;;7.80;;
10096;SDS011;5087;42.662;23.466;2023-04-30T11:04:03;8.23;;;8.03;;
10096;SDS011;5087;42.662;23.466;2023-04-30T11:09:14;6.60;;;6.50;;
10096;SDS011;5087;42.662;23.466;2023-04-30T11:11:41;5.13;;;5.03;;
10096;SDS011;5087;42.662;23.466;2023-04-30T11:14:10;4.93;;;4.83;;
10096;SDS011;5087;42.662;23.466;2023-04-30T11:16:39;4.80;;;4.70;;
10096;SDS011;5087;42.662;23.466;2023-04-30T11:19:06;4.90;;;4.80;;
10096;SDS011;5087;42.662;23.466;2023-04-30T11:21:38;5.30;;;5.20;;
10096;SDS011;5087;42.662;23.466;2023-04-30T11:24:05;5.13;;;5.03;;
10096;SDS011;5087;42.662;23.466;2023-04-30T11:29:15;4.90;;;4.80;;
10096;SDS011;5087;42.662;23.466;2023-04-30T11:31:43;4.63;;;4.53;;
10096;SDS011;5087;42.662;23.466;2023-04-30T11:34:10;4.00;;;3.93;;
10096;SDS011;5087;42.662;23.466;2023-04-30T11:36:37;4.60;;;4.47;;
10096;SDS011;5087;42.662;23.466;2023-04-30T11:39:05;4.40;;;4.30;;
10096;SDS011;5087;42.662;23.466;2023-04-30T11:41:39;5.00;;;4.80;;
10096;SDS011;5087;42.662;23.466;2023-04-30T11:47:01;5.20;;;5.10;;
10096;SDS011;5087;42.662;23.466;2023-04-30T11:49:28;4.33;;;4.23;;
10096;SDS011;5087;42.662;23.466;2023-04-30T11:51:55;4.20;;;4.10;;
10096;SDS011;5087;42.662;23.466;2023-04-30T11:54:22;3.87;;;3.77;;
10096;SDS011;5087;42.662;23.466;2023-04-30T11:56:49;3.77;;;3.77;;
10096;SDS011;5087;42.662;23.466;2023-04-30T11:59:18;3.60;;;3.60;;
10096;SDS011;5087;42.662;23.466;2023-04-30T12:01:45;4.20;;;4.10;;
10096;SDS011;5087;42.662;23.466;2023-04-30T12:04:13;3.77;;;3.77;;
10096;SDS011;5087;42.662;23.466;2023-04-30T12:06:40;4.37;;;4.27;;
10096;SDS011;5087;42.662;23.466;2023-04-30T12:09:08;5.10;;;5.00;;
10096;SDS011;5087;42.662;23.466;2023-04-30T12:11:38;5.20;;;5.10;;
10096;SDS011;5087;42.662;23.466;2023-04-30T12:14:06;5.20;;;5.10;;
10096;SDS011;5087;42.662;23.466;2023-04-30T12:16:41;5.17;;;5.07;;
10096;SDS011;5087;42.662;23.466;2023-04-30T12:19:16;5.50;;;5.40;;
10096;SDS011;5087;42.662;23.466;2023-04-30T12:21:44;4.50;;;4.40;;
10096;SDS011;5087;42.662;23.466;2023-04-30T12:24:12;4.80;;;4.70;;
10096;SDS011;5087;42.662;23.466;2023-04-30T12:26:39;4.80;;;4.70;;
10096;SDS011;5087;42.662;23.466;2023-04-30T12:29:07;4.80;;;4.70;;
10096;SDS011;5087;42.662;23.466;2023-04-30T12:31:35;5.10;;;4.90;;
10096;SDS011;5087;42.662;23.466;2023-04-30T12:34:02;5.40;;;5.30;;
10096;SDS011;5087;42.662;23.466;2023-04-30T12:36:32;7.37;;;7.17;;
10096;SDS011;5087;42.662;23.466;2023-04-30T12:39:01;6.40;;;6.30;;
10096;SDS011;5087;42.662;23.466;2023-04-30T12:41:35;5.87;;;5.77;;
10096;SDS011;5087;42.662;23.466;2023-04-30T12:46:47;0.47;;;0.47;;
10096;SDS011;5087;42.662;23.466;2023-04-30T12:49:21;0.30;;;0.30;;
10096;SDS011;5087;42.662;23.466;2023-04-30T12:51:57;0.70;;;0.70;;
10096;SDS011;5087;42.662;23.466;2023-04-30T12:54:24;0.40;;;0.40;;
10096;SDS011;5087;42.662;23.466;2023-04-30T12:56:58;0.10;;;0.10;;
10096;SDS011;5087;42.662;23.466;2023-04-30T12:59:26;0.27;;;0.27;;
10096;SDS011;5087;42.662;23.466;2023-04-30T13:02:06;1.03;;;1.03;;
10096;SDS011;5087;42.662;23.466;2023-04-30T13:04:33;0.47;;;0.47;;
10096;SDS011;5087;42.662;23.466;2023-04-30T13:07:02;0.80;;;0.80;;
10096;SDS011;5087;42.662;23.466;2023-04-30T13:09:30;1.30;;;1.30;;
10096;SDS011;5087;42.662;23.466;2023-04-30T13:11:57;1.90;;;1.90;;
10096;SDS011;5087;42.662;23.466;2023-04-30T13:14:24;2.30;;;2.30;;
10096;SDS011;5087;42.662;23.466;2023-04-30T13:16:51;4.30;;;4.20;;
10096;SDS011;5087;42.662;23.466;2023-04-30T13:19:19;3.77;;;3.77;;
10096;SDS011;5087;42.662;23.466;2023-04-30T13:21:46;6.20;;;6.10;;
10096;SDS011;5087;42.662;23.466;2023-04-30T13:24:16;6.00;;;5.90;;
10096;SDS011;5087;42.662;23.466;2023-04-30T13:26:43;7.80;;;7.60;;
10096;SDS011;5087;42.662;23.466;2023-04-30T13:29:10;8.30;;;8.10;;
10096;SDS011;5087;42.662;23.466;2023-04-30T13:31:38;8.70;;;8.50;;
10096;SDS011;5087;42.662;23.466;2023-04-30T13:34:07;9.10;;;8.80;;
10096;SDS011;5087;42.662;23.466;2023-04-30T13:36:34;9.70;;;9.40;;
10096;SDS011;5087;42.662;23.466;2023-04-30T13:39:01;10.10;;;9.80;;
10096;SDS011;5087;42.662;23.466;2023-04-30T13:41:30;9.80;;;9.40;;
10096;SDS011;5087;42.662;23.466;2023-04-30T13:44:00;10.07;;;9.77;;
10096;SDS011;5087;42.662;23.466;2023-04-30T13:46:27;10.83;;;10.53;;
10096;SDS011;5087;42.662;23.466;2023-04-30T13:48:54;7.40;;;7.20;;
10096;SDS011;5087;42.662;23.466;2023-04-30T13:51:21;6.30;;;6.20;;
10096;SDS011;5087;42.662;23.466;2023-04-30T13:53:49;5.93;;;5.83;;
10096;SDS011;5087;42.662;23.466;2023-04-30T13:56:17;6.20;;;6.10;;
10096;SDS011;5087;42.662;23.466;2023-04-30T13:58:49;7.30;;;7.10;;
10096;SDS011;5087;42.662;23.466;2023-04-30T14:01:16;7.20;;;7.00;;
10096;SDS011;5087;42.662;23.466;2023-04-30T14:03:43;7.17;;;6.97;;
10096;SDS011;5087;42.662;23.466;2023-04-30T14:06:11;7.00;;;6.80;;
10096;SDS011;5087;42.662;23.466;2023-04-30T14:08:38;8.00;;;7.80;;
10096;SDS011;5087;42.662;23.466;2023-04-30T14:11:05;7.80;;;7.60;;
10096;SDS011;5087;42.662;23.466;2023-04-30T14:13:32;8.40;;;8.20;;
10096;SDS011;5087;42.662;23.466;2023-04-30T14:16:00;8.53;;;8.33;;
10096;SDS011;5087;42.662;23.466;2023-04-30T14:18:27;8.33;;;8.13;;
10096;SDS011;5087;42.662;23.466;2023-04-30T14:20:54;8.30;;;8.10;;
10096;SDS011;5087;42.662;23.466;2023-04-30T14:23:21;8.33;;;8.13;;
10096;SDS011;5087;42.662;23.466;2023-04-30T14:25:48;6.50;;;6.40;;
10096;SDS011;5087;42.662;23.466;2023-04-30T14:28:15;4.90;;;4.80;;
10096;SDS011;5087;42.662;23.466;2023-04-30T14:30:41;4.30;;;4.20;;
10096;SDS011;5087;42.662;23.466;2023-04-30T14:33:10;4.40;;;4.30;;
10096;SDS011;5087;42.662;23.466;2023-04-30T14:35:39;4.97;;;4.87;;
10096;SDS011;5087;42.662;23.466;2023-04-30T14:38:06;4.50;;;4.40;;
10096;SDS011;5087;42.662;23.466;2023-04-30T14:40:33;4.60;;;4.50;;
10096;SDS011;5087;42.662;23.466;2023-04-30T14:43:00;4.93;;;4.83;;
10096;SDS011;5087;42.662;23.466;2023-04-30T14:45:27;4.90;;;4.80;;
10096;SDS011;5087;42.662;23.466;2023-04-30T14:47:56;4.40;;;4.30;;
10096;SDS011;5087;42.662;23.466;2023-04-30T14:50:24;4.90;;;4.80;;
10096;SDS011;5087;42.662;23.466;2023-04-30T14:52:51;4.70;;;4.60;;
10096;SDS011;5087;42.662;23.466;2023-04-30T14:55:18;5.00;;;4.90;;
10096;SDS011;5087;42.662;23.466;2023-04-30T14:57:45;4.60;;;4.50;;
10096;SDS011;5087;42.662;23.466;2023-04-30T15:00:12;4.70;;;4.60;;
10096;SDS011;5087;42.662;23.466;2023-04-30T15:02:40;4.40;;;4.30;;
10096;SDS011;5087;42.662;23.466;2023-04-30T15:05:07;4.93;;;4.83;;